createdAt,value
2022-12-31T00:01:26.573Z,-1.40
2022-12-31T00:03:53.683Z,-1.42
2022-12-31T00:06:24.857Z,-1.44
2022-12-31T00:08:53.385Z,-1.47
2022-12-31T00:11:20.685Z,-1.49
2022-12-31T00:13:47.787Z,-1.50
2022-12-31T00:16:18.399Z,-1.52
2022-12-31T00:18:46.807Z,-1.50
2022-12-31T00:21:14.316Z,-1.41
2022-12-31T00:23:40.781Z,-1.40
2022-12-31T00:26:15.405Z,-1.42
2022-12-31T00:28:43.058Z,-1.45
2022-12-31T00:31:19.218Z,-1.48
2022-12-31T00:33:46.233Z,-1.48
2022-12-31T00:36:17.216Z,-1.49
2022-12-31T00:38:46.317Z,-1.52
2022-12-31T00:41:14.208Z,-1.54
2022-12-31T00:43:41.556Z,-1.55
2022-12-31T00:46:08.660Z,-1.57
2022-12-31T00:48:36.074Z,-1.56
2022-12-31T00:51:05.364Z,-1.55
2022-12-31T00:53:32.496Z,-1.53
2022-12-31T00:56:11.667Z,-1.52
2022-12-31T00:58:38.396Z,-1.47
2022-12-31T01:01:33.261Z,-1.34
2022-12-31T01:04:06.794Z,-1.09
2022-12-31T01:06:33.357Z,-0.84
2022-12-31T01:09:00.136Z,-0.69
2022-12-31T01:11:26.834Z,-0.65
2022-12-31T01:13:56.510Z,-0.61
2022-12-31T01:16:26.658Z,-0.56
2022-12-31T01:18:54.147Z,-0.52
2022-12-31T01:21:22.438Z,-0.54
2022-12-31T01:23:50.291Z,-0.48
2022-12-31T01:26:18.666Z,-0.45
2022-12-31T01:28:45.801Z,-0.47
2022-12-31T01:31:15.392Z,-0.55
2022-12-31T01:33:42.653Z,-0.62
2022-12-31T01:36:25.588Z,-0.70
2022-12-31T01:38:53.771Z,-0.77
2022-12-31T01:41:23.450Z,-0.82
2022-12-31T01:44:01.728Z,-0.78
2022-12-31T01:46:41.940Z,-0.76
2022-12-31T01:49:19.074Z,-0.78
2022-12-31T01:51:51.304Z,-0.75
2022-12-31T01:54:21.948Z,-0.77
2022-12-31T01:56:50.666Z,-0.76
2022-12-31T01:59:19.073Z,-0.78
2022-12-31T02:01:45.740Z,-0.83
2022-12-31T02:04:14.600Z,-0.80
2022-12-31T02:06:58.954Z,-0.68
2022-12-31T02:09:25.905Z,-0.68
2022-12-31T02:11:52.344Z,-0.68
2022-12-31T02:14:22.155Z,-0.67
2022-12-31T02:16:57.802Z,-0.70
2022-12-31T02:19:44.845Z,-0.70
2022-12-31T02:22:55.608Z,-0.73
2022-12-31T02:25:40.872Z,-0.73
2022-12-31T02:28:13.309Z,-0.78
2022-12-31T02:30:42.191Z,-0.81
2022-12-31T02:33:27.269Z,-0.84
2022-12-31T02:36:02.063Z,-0.79
2022-12-31T02:38:38.212Z,-0.68
2022-12-31T02:41:05.025Z,-0.54
2022-12-31T02:43:31.760Z,-0.45
2022-12-31T02:46:27.697Z,-0.39
2022-12-31T02:49:23.305Z,-0.32
2022-12-31T02:52:04.028Z,-0.30
2022-12-31T02:54:40.027Z,-0.28
2022-12-31T02:57:16.116Z,-0.21
2022-12-31T03:00:13.767Z,-0.12
2022-12-31T03:02:45.527Z,-0.05
2022-12-31T03:05:13.581Z,-0.04
2022-12-31T03:07:41.564Z,-0.06
2022-12-31T03:10:08.919Z,-0.13
2022-12-31T03:12:36.201Z,-0.18
2022-12-31T03:15:02.938Z,-0.21
2022-12-31T03:17:29.365Z,-0.22
2022-12-31T03:19:55.778Z,-0.21
2022-12-31T03:22:22.777Z,-0.13
2022-12-31T03:24:49.316Z,-0.06
2022-12-31T03:27:15.958Z,0.05
2022-12-31T03:29:42.500Z,0.21
2022-12-31T03:32:09.139Z,0.40
2022-12-31T03:34:35.559Z,0.63
2022-12-31T03:37:03.611Z,0.78
2022-12-31T03:39:30.092Z,0.89
2022-12-31T03:41:56.737Z,1.01
2022-12-31T03:44:23.217Z,1.10
2022-12-31T03:46:49.681Z,1.17
2022-12-31T03:49:16.239Z,1.25
2022-12-31T03:51:42.699Z,1.31
2022-12-31T03:54:09.234Z,1.36
2022-12-31T03:56:35.672Z,1.41
2022-12-31T03:59:02.215Z,1.42
2022-12-31T04:01:28.728Z,1.44
2022-12-31T04:03:55.398Z,1.50
2022-12-31T04:06:21.934Z,1.55
2022-12-31T04:08:48.360Z,1.55
2022-12-31T04:11:20.515Z,1.55
2022-12-31T04:13:47.715Z,1.59
2022-12-31T04:16:14.430Z,1.59
2022-12-31T04:18:41.002Z,1.60
2022-12-31T04:21:07.445Z,1.61
2022-12-31T04:23:33.973Z,1.62
2022-12-31T04:26:00.428Z,1.62
2022-12-31T04:28:26.959Z,1.60
2022-12-31T04:30:53.495Z,1.57
2022-12-31T04:33:19.997Z,1.53
2022-12-31T04:35:46.584Z,1.50
2022-12-31T04:38:13.116Z,1.48
2022-12-31T04:40:39.726Z,1.43
2022-12-31T04:43:06.142Z,1.39
2022-12-31T04:45:32.699Z,1.33
2022-12-31T04:47:59.239Z,1.28
2022-12-31T04:50:25.688Z,1.28
2022-12-31T04:52:52.141Z,1.26
2022-12-31T04:55:19.000Z,1.26
2022-12-31T04:57:45.440Z,1.27
2022-12-31T05:00:13.752Z,1.34
2022-12-31T05:02:40.447Z,1.50
2022-12-31T05:05:07.740Z,1.66
2022-12-31T05:07:34.190Z,1.81
2022-12-31T05:10:00.671Z,1.94
2022-12-31T05:12:27.082Z,2.07
2022-12-31T05:14:53.582Z,2.15
2022-12-31T05:17:20.024Z,2.22
2022-12-31T05:19:46.545Z,2.29
2022-12-31T05:22:13.049Z,2.33
2022-12-31T05:24:39.780Z,2.39
2022-12-31T05:27:06.284Z,2.45
2022-12-31T05:29:32.780Z,2.49
2022-12-31T05:31:59.262Z,2.53
2022-12-31T05:34:25.684Z,2.54
2022-12-31T05:36:52.626Z,2.55
2022-12-31T05:39:19.199Z,2.57
2022-12-31T05:41:45.814Z,2.58
2022-12-31T05:44:12.457Z,2.57
2022-12-31T05:46:38.889Z,2.53
2022-12-31T05:49:05.534Z,2.52
2022-12-31T05:51:31.973Z,2.53
2022-12-31T05:53:58.380Z,2.64
2022-12-31T05:56:24.944Z,2.83
2022-12-31T05:58:51.550Z,3.02
2022-12-31T06:01:18.063Z,3.18
2022-12-31T06:03:44.615Z,3.33
2022-12-31T06:06:11.210Z,3.43
2022-12-31T06:08:37.740Z,3.49
2022-12-31T06:11:04.384Z,3.56
2022-12-31T06:13:30.885Z,3.61
2022-12-31T06:15:57.688Z,3.68
2022-12-31T06:18:24.221Z,3.73
2022-12-31T06:20:50.863Z,3.72
2022-12-31T06:23:17.394Z,3.68
2022-12-31T06:25:43.938Z,3.62
2022-12-31T06:28:13.301Z,3.48
2022-12-31T06:30:44.589Z,3.27
2022-12-31T06:33:11.061Z,3.10
2022-12-31T06:35:37.443Z,2.97
2022-12-31T06:38:03.982Z,2.90
2022-12-31T06:40:30.458Z,2.85
2022-12-31T06:43:00.137Z,2.84
2022-12-31T06:45:27.339Z,2.80
2022-12-31T06:47:53.947Z,2.77
2022-12-31T06:50:20.337Z,2.74
2022-12-31T06:52:46.825Z,2.74
2022-12-31T06:55:14.122Z,2.75
2022-12-31T06:57:41.227Z,2.73
2022-12-31T07:00:10.134Z,2.72
2022-12-31T07:02:48.925Z,2.77
2022-12-31T07:05:30.883Z,2.84
2022-12-31T07:08:11.647Z,2.90
2022-12-31T07:10:48.903Z,2.93
2022-12-31T07:13:47.282Z,2.95
2022-12-31T07:16:25.685Z,3.00
2022-12-31T07:19:15.648Z,3.06
2022-12-31T07:21:42.432Z,3.03
2022-12-31T07:24:11.217Z,3.00
2022-12-31T07:27:04.399Z,2.98
2022-12-31T07:30:08.211Z,3.01
2022-12-31T07:32:37.557Z,3.07
2022-12-31T07:35:35.200Z,3.20
2022-12-31T07:38:08.248Z,3.31
2022-12-31T07:41:12.026Z,3.36
2022-12-31T07:43:53.088Z,3.45
2022-12-31T07:46:25.703Z,3.61
2022-12-31T07:48:52.697Z,3.82
2022-12-31T07:51:19.756Z,4.03
2022-12-31T07:53:46.188Z,4.26
2022-12-31T07:56:13.640Z,4.49
2022-12-31T07:58:40.112Z,4.69
2022-12-31T08:01:13.159Z,4.82
2022-12-31T08:04:00.712Z,4.87
2022-12-31T08:06:30.123Z,4.99
2022-12-31T08:09:07.003Z,5.20
2022-12-31T08:11:48.699Z,5.48
2022-12-31T08:14:15.862Z,5.77
2022-12-31T08:16:43.062Z,5.99
2022-12-31T08:19:36.173Z,6.15
2022-12-31T08:22:20.626Z,6.25
2022-12-31T08:25:12.291Z,6.31
2022-12-31T08:28:08.385Z,6.31
2022-12-31T08:30:55.090Z,6.28
2022-12-31T08:33:33.546Z,6.28
2022-12-31T08:36:14.978Z,6.28
2022-12-31T08:38:57.551Z,6.35
2022-12-31T08:41:37.598Z,6.52
2022-12-31T08:44:28.856Z,6.73
2022-12-31T08:47:25.716Z,7.00
2022-12-31T08:49:52.722Z,7.50
2022-12-31T08:52:23.859Z,7.92
2022-12-31T08:54:51.127Z,8.46
2022-12-31T08:57:20.636Z,9.14
2022-12-31T08:59:58.536Z,9.70
2022-12-31T09:02:33.684Z,10.22
2022-12-31T09:05:05.444Z,10.75
2022-12-31T09:07:39.372Z,11.15
2022-12-31T09:10:20.947Z,11.37
2022-12-31T09:13:07.280Z,11.71
2022-12-31T09:15:41.296Z,11.92
2022-12-31T09:18:11.701Z,12.12
2022-12-31T09:20:43.773Z,12.41
2022-12-31T09:23:12.616Z,12.70
2022-12-31T09:25:54.142Z,13.03
2022-12-31T09:28:41.174Z,13.37
2022-12-31T09:31:21.961Z,13.50
2022-12-31T09:33:59.505Z,13.60
2022-12-31T09:36:33.081Z,13.75
2022-12-31T09:39:04.906Z,13.99
2022-12-31T09:41:34.323Z,14.15
2022-12-31T09:44:25.640Z,14.20
2022-12-31T09:46:54.836Z,14.24
2022-12-31T09:49:47.706Z,14.31
2022-12-31T09:52:38.687Z,13.96
2022-12-31T09:55:23.782Z,13.56
2022-12-31T09:58:31.355Z,13.26
2022-12-31T10:01:55.028Z,13.13
2022-12-31T10:04:52.102Z,13.03
2022-12-31T10:07:33.125Z,12.96
2022-12-31T10:10:25.675Z,12.94
2022-12-31T10:13:17.187Z,12.95
2022-12-31T10:16:16.181Z,13.09
2022-12-31T10:18:54.812Z,13.22
2022-12-31T10:21:33.464Z,13.35
2022-12-31T10:24:37.040Z,13.46
2022-12-31T10:27:25.514Z,13.41
2022-12-31T10:30:16.922Z,13.26
2022-12-31T10:32:43.481Z,13.21
2022-12-31T10:35:47.584Z,13.21
2022-12-31T10:38:17.096Z,13.39
2022-12-31T10:41:17.023Z,13.47
2022-12-31T10:44:11.179Z,13.61
2022-12-31T10:46:46.796Z,13.82
2022-12-31T10:50:11.991Z,13.98
2022-12-31T10:52:53.447Z,14.12
2022-12-31T10:55:44.677Z,14.22
2022-12-31T10:58:26.084Z,14.28
2022-12-31T11:01:00.096Z,14.25
2022-12-31T11:03:38.738Z,14.25
2022-12-31T11:06:36.063Z,14.26
2022-12-31T11:09:14.924Z,14.35
2022-12-31T11:11:59.392Z,14.39
2022-12-31T11:14:46.929Z,14.26
2022-12-31T11:17:20.664Z,14.09
2022-12-31T11:20:24.514Z,13.84
2022-12-31T11:23:00.918Z,13.72
2022-12-31T11:25:30.864Z,13.60
2022-12-31T11:28:19.673Z,13.51
2022-12-31T11:30:55.246Z,13.40
2022-12-31T11:33:46.770Z,13.30
2022-12-31T11:36:16.557Z,13.13
2022-12-31T11:38:58.146Z,13.07
2022-12-31T11:41:27.450Z,13.03
2022-12-31T11:44:11.251Z,12.96
2022-12-31T11:46:53.916Z,12.90
2022-12-31T11:49:39.929Z,12.88
2022-12-31T11:53:04.247Z,12.91
2022-12-31T11:55:53.069Z,12.96
2022-12-31T11:58:20.948Z,13.00
2022-12-31T12:00:56.823Z,13.06
2022-12-31T12:03:23.972Z,13.06
2022-12-31T12:05:50.698Z,13.05
2022-12-31T12:08:17.551Z,13.00
2022-12-31T12:10:50.897Z,12.97
2022-12-31T12:13:17.253Z,12.91
2022-12-31T12:15:51.522Z,12.84
2022-12-31T12:18:27.014Z,12.80
2022-12-31T12:20:53.932Z,12.76
2022-12-31T12:23:24.631Z,12.71
2022-12-31T12:25:51.356Z,12.64
2022-12-31T12:28:27.388Z,12.58
2022-12-31T12:31:03.817Z,12.55
2022-12-31T12:33:41.235Z,12.49
2022-12-31T12:36:13.596Z,12.41
2022-12-31T12:38:40.281Z,12.33
2022-12-31T12:41:12.329Z,12.27
2022-12-31T12:43:39.761Z,12.21
2022-12-31T12:46:32.385Z,12.14
2022-12-31T12:48:59.640Z,12.07
2022-12-31T12:52:01.726Z,12.03
2022-12-31T12:54:55.429Z,12.02
2022-12-31T12:57:49.215Z,12.04
2022-12-31T13:00:22.125Z,12.07
2022-12-31T13:03:01.022Z,12.14
2022-12-31T13:05:42.174Z,12.23
2022-12-31T13:08:36.005Z,12.32
2022-12-31T13:11:23.585Z,12.45
2022-12-31T13:13:55.958Z,12.57
2022-12-31T13:16:22.543Z,12.62
2022-12-31T13:18:59.686Z,12.66
2022-12-31T13:21:40.945Z,12.66
2022-12-31T13:24:18.591Z,12.68
2022-12-31T13:27:09.480Z,12.68
2022-12-31T13:29:38.842Z,12.70
2022-12-31T13:32:09.227Z,12.72
2022-12-31T13:34:40.670Z,12.73
2022-12-31T13:37:35.089Z,12.72
2022-12-31T13:40:06.948Z,12.68
2022-12-31T13:42:48.091Z,12.65
2022-12-31T13:45:22.020Z,12.62
2022-12-31T13:47:54.312Z,12.60
2022-12-31T13:50:33.749Z,12.60
2022-12-31T13:53:23.931Z,12.61
2022-12-31T13:55:57.051Z,12.63
2022-12-31T13:58:47.245Z,12.65
2022-12-31T14:01:34.084Z,12.65
2022-12-31T14:04:03.696Z,12.64
2022-12-31T14:06:38.873Z,12.62
2022-12-31T14:09:06.020Z,12.58
2022-12-31T14:12:00.523Z,12.55
2022-12-31T14:14:40.990Z,12.52
2022-12-31T14:17:12.368Z,12.51
2022-12-31T14:19:41.376Z,12.49
2022-12-31T14:22:28.908Z,12.48
2022-12-31T14:24:58.288Z,12.45
2022-12-31T14:27:41.834Z,12.41
2022-12-31T14:30:21.072Z,12.36
2022-12-31T14:33:03.051Z,12.30
2022-12-31T14:35:37.381Z,12.23
2022-12-31T14:38:09.858Z,12.17
2022-12-31T14:41:15.898Z,12.14
2022-12-31T14:43:50.599Z,12.13
2022-12-31T14:46:28.162Z,12.13
2022-12-31T14:49:17.384Z,12.12
2022-12-31T14:51:43.866Z,12.14
2022-12-31T14:54:35.751Z,12.13
2022-12-31T14:57:18.131Z,12.15
2022-12-31T14:59:58.995Z,12.13
2022-12-31T15:02:27.899Z,12.14
2022-12-31T15:05:25.944Z,12.20
2022-12-31T15:07:57.241Z,12.20
2022-12-31T15:10:40.014Z,12.20
2022-12-31T15:13:16.801Z,12.21
2022-12-31T15:15:51.834Z,12.22
2022-12-31T15:18:55.964Z,12.23
2022-12-31T15:21:46.038Z,12.19
2022-12-31T15:24:18.821Z,12.16
2022-12-31T15:26:57.500Z,12.13
2022-12-31T15:29:23.853Z,12.10
2022-12-31T15:31:51.157Z,12.06
2022-12-31T15:34:27.561Z,12.02
2022-12-31T15:36:57.766Z,12.00
2022-12-31T15:39:36.360Z,12.00
2022-12-31T15:42:36.758Z,11.95
2022-12-31T15:44:54.992Z,11.89
2022-12-31T15:47:37.043Z,11.83
2022-12-31T15:50:08.126Z,11.74
2022-12-31T15:52:41.666Z,11.68
2022-12-31T15:55:16.428Z,11.62
2022-12-31T15:57:43.770Z,11.57
2022-12-31T16:00:55.063Z,11.52
2022-12-31T16:03:24.402Z,11.41
2022-12-31T16:05:54.218Z,11.32
2022-12-31T16:08:24.759Z,11.23
2022-12-31T16:10:53.814Z,11.17
2022-12-31T16:13:23.022Z,11.12
2022-12-31T16:16:00.323Z,11.08
2022-12-31T16:18:37.093Z,11.03
2022-12-31T16:21:03.633Z,10.97
2022-12-31T16:23:30.169Z,10.88
2022-12-31T16:26:01.026Z,10.79
2022-12-31T16:28:33.203Z,10.71
2022-12-31T16:31:06.164Z,10.62
2022-12-31T16:33:33.126Z,10.53
2022-12-31T16:36:01.509Z,10.43
2022-12-31T16:38:35.966Z,10.34
2022-12-31T16:41:02.465Z,10.25
2022-12-31T16:43:40.597Z,10.19
2022-12-31T16:46:19.029Z,10.11
2022-12-31T16:48:54.061Z,10.03
2022-12-31T16:51:24.457Z,9.87
2022-12-31T16:53:51.971Z,9.74
2022-12-31T16:56:39.371Z,9.58
2022-12-31T16:59:31.923Z,9.40
2022-12-31T17:02:05.026Z,9.20
2022-12-31T17:04:31.574Z,9.01
2022-12-31T17:07:40.839Z,8.86
2022-12-31T17:10:07.215Z,8.65
2022-12-31T17:13:08.738Z,8.53
2022-12-31T17:15:38.133Z,8.42
2022-12-31T17:18:06.057Z,8.34
2022-12-31T17:20:34.651Z,8.27
2022-12-31T17:23:05.582Z,8.18
2022-12-31T17:25:37.358Z,8.10
2022-12-31T17:28:06.943Z,8.06
2022-12-31T17:30:33.393Z,8.02
2022-12-31T17:33:22.976Z,7.96
2022-12-31T17:36:12.366Z,7.88
2022-12-31T17:38:39.001Z,7.81
2022-12-31T17:41:05.473Z,7.75
2022-12-31T17:43:39.044Z,7.70
2022-12-31T17:46:19.625Z,7.65
2022-12-31T17:48:52.086Z,7.59
2022-12-31T17:51:18.490Z,7.53
2022-12-31T17:53:50.996Z,7.45
2022-12-31T17:56:19.115Z,7.40
2022-12-31T17:58:49.073Z,7.35
2022-12-31T18:01:18.584Z,7.30
2022-12-31T18:03:45.578Z,7.25
2022-12-31T18:06:16.509Z,7.22
2022-12-31T18:08:43.537Z,7.20
2022-12-31T18:11:28.754Z,7.21
2022-12-31T18:13:55.570Z,7.23
2022-12-31T18:16:22.154Z,7.21
2022-12-31T18:18:49.460Z,7.18
2022-12-31T18:21:35.348Z,7.15
2022-12-31T18:26:30.674Z,7.06
2022-12-31T18:28:59.494Z,7.01
2022-12-31T18:31:29.583Z,6.98
2022-12-31T18:33:58.689Z,6.92
2022-12-31T18:36:26.753Z,6.85
2022-12-31T18:38:53.239Z,6.79
2022-12-31T18:41:32.294Z,6.79
2022-12-31T18:43:58.777Z,6.80
2022-12-31T18:46:25.446Z,6.79
2022-12-31T18:48:52.164Z,6.79
2022-12-31T18:51:25.144Z,6.79
2022-12-31T18:53:56.179Z,6.73
2022-12-31T18:56:22.969Z,6.71
2022-12-31T18:58:49.507Z,6.67
2022-12-31T19:01:37.630Z,6.62
2022-12-31T19:04:27.883Z,6.55
2022-12-31T19:06:55.608Z,6.53
2022-12-31T19:12:12.747Z,6.54
2022-12-31T19:14:39.166Z,6.54
2022-12-31T19:19:31.018Z,6.46
2022-12-31T19:21:57.562Z,6.45
2022-12-31T19:24:26.062Z,6.48
2022-12-31T19:26:53.506Z,6.48
2022-12-31T19:29:22.679Z,6.47
2022-12-31T19:31:50.112Z,6.46
2022-12-31T19:34:17.210Z,6.42
2022-12-31T19:36:44.273Z,6.41
2022-12-31T19:39:17.467Z,6.39
2022-12-31T19:41:44.788Z,6.37
2022-12-31T19:44:16.868Z,6.32
2022-12-31T19:46:43.868Z,6.31
2022-12-31T19:49:11.600Z,6.34
2022-12-31T19:51:38.029Z,6.40
2022-12-31T19:54:04.705Z,6.41
2022-12-31T19:56:31.284Z,6.41
2022-12-31T19:58:57.695Z,6.37
2022-12-31T20:01:25.477Z,6.33
2022-12-31T20:03:52.168Z,6.26
2022-12-31T20:06:19.303Z,6.22
2022-12-31T20:08:45.857Z,6.22
2022-12-31T20:11:15.263Z,6.21
2022-12-31T20:13:42.262Z,6.20
2022-12-31T20:16:11.795Z,6.16
2022-12-31T20:18:40.426Z,6.10
2022-12-31T20:21:22.403Z,6.05
2022-12-31T20:23:50.592Z,5.98
2022-12-31T20:26:17.879Z,5.90
2022-12-31T20:28:44.904Z,5.83
2022-12-31T20:31:14.461Z,5.78
2022-12-31T20:33:41.745Z,5.74
2022-12-31T20:36:11.400Z,5.73
2022-12-31T20:38:38.426Z,5.70
2022-12-31T20:41:05.093Z,5.62
2022-12-31T20:43:33.053Z,5.54
2022-12-31T20:46:00.048Z,5.46
2022-12-31T20:48:26.512Z,5.39
2022-12-31T20:50:58.929Z,5.29
2022-12-31T20:53:25.443Z,5.23
2022-12-31T20:55:51.973Z,5.15
2022-12-31T20:58:18.823Z,5.09
2022-12-31T21:00:49.129Z,5.03
2022-12-31T21:03:37.266Z,4.96
2022-12-31T21:06:02.378Z,4.88
2022-12-31T21:08:34.570Z,4.81
2022-12-31T21:11:02.024Z,4.72
2022-12-31T21:13:28.568Z,4.65
2022-12-31T21:15:55.747Z,4.61
2022-12-31T21:18:23.105Z,4.58
2022-12-31T21:20:52.011Z,4.54
2022-12-31T21:23:20.174Z,4.56
2022-12-31T21:25:49.804Z,4.59
2022-12-31T21:28:16.326Z,4.56
2022-12-31T21:30:43.542Z,4.56
2022-12-31T21:33:10.028Z,4.54
2022-12-31T21:35:51.660Z,4.49
2022-12-31T21:38:20.500Z,4.46
2022-12-31T21:40:47.045Z,4.42
2022-12-31T21:43:14.605Z,4.38
2022-12-31T21:45:41.656Z,4.34
2022-12-31T21:48:14.173Z,4.33
2022-12-31T21:50:40.680Z,4.34
2022-12-31T21:53:07.127Z,4.32
2022-12-31T21:55:33.635Z,4.28
2022-12-31T21:58:25.387Z,4.22
2022-12-31T22:00:49.415Z,4.17
2022-12-31T22:03:15.929Z,4.10
2022-12-31T22:05:50.744Z,4.05
2022-12-31T22:08:17.902Z,3.98
2022-12-31T22:10:51.905Z,3.92
2022-12-31T22:13:19.684Z,3.87
2022-12-31T22:15:48.392Z,3.85
2022-12-31T22:18:16.849Z,3.81
2022-12-31T22:20:43.615Z,3.72
2022-12-31T22:23:10.610Z,3.65
2022-12-31T22:25:38.231Z,3.61
2022-12-31T22:30:53.285Z,3.51
2022-12-31T22:33:19.825Z,3.45
2022-12-31T22:35:57.376Z,3.40
2022-12-31T22:38:24.033Z,3.37
2022-12-31T22:40:50.473Z,3.34
2022-12-31T22:43:16.869Z,3.38
2022-12-31T22:45:43.422Z,3.45
2022-12-31T22:48:09.871Z,3.53
2022-12-31T22:50:36.431Z,3.55
2022-12-31T22:53:02.855Z,3.55
2022-12-31T22:55:29.248Z,3.58
2022-12-31T22:57:55.822Z,3.64
2022-12-31T23:00:36.822Z,3.71
2022-12-31T23:03:03.834Z,3.73
2022-12-31T23:05:32.327Z,3.73
2022-12-31T23:07:58.891Z,3.72
2022-12-31T23:10:25.263Z,3.72
2022-12-31T23:12:51.663Z,3.72
2022-12-31T23:15:18.299Z,3.76
2022-12-31T23:17:44.924Z,3.74
2022-12-31T23:20:20.281Z,3.72
2022-12-31T23:22:47.427Z,3.72
2022-12-31T23:25:14.112Z,3.71
2022-12-31T23:27:40.610Z,3.70
2022-12-31T23:30:07.718Z,3.70
2022-12-31T23:32:34.139Z,3.71
2022-12-31T23:35:03.295Z,3.75
2022-12-31T23:37:35.993Z,3.79
2022-12-31T23:40:02.542Z,3.82
2022-12-31T23:42:29.438Z,3.80
2022-12-31T23:44:55.829Z,3.78
2022-12-31T23:47:22.226Z,3.77
2022-12-31T23:49:48.791Z,3.78
2022-12-31T23:52:15.340Z,3.78
2022-12-31T23:54:41.924Z,3.77
2022-12-31T23:57:08.636Z,3.78
2022-12-31T23:59:35.159Z,3.78
